createdAt,value
2023-08-20T00:01:29.729Z,16.00
2023-08-20T00:04:12.359Z,16.30
2023-08-20T00:06:44.259Z,14.47
2023-08-20T00:09:15.208Z,20.37
2023-08-20T00:11:43.215Z,16.07
2023-08-20T00:14:18.319Z,19.83
2023-08-20T00:16:52.348Z,19.10
2023-08-20T00:19:28.896Z,16.20
2023-08-20T00:21:59.922Z,16.60
2023-08-20T00:24:39.762Z,22.23
2023-08-20T00:27:07.764Z,16.27
2023-08-20T00:29:35.765Z,20.23
2023-08-20T00:32:21.705Z,18.10
2023-08-20T00:35:03.830Z,18.70
2023-08-20T00:37:37.874Z,17.67
2023-08-20T00:40:10.841Z,19.67
2023-08-20T00:43:02.588Z,18.40
2023-08-20T00:45:36.158Z,22.37
2023-08-20T00:48:10.391Z,16.67
2023-08-20T00:50:50.456Z,17.10
2023-08-20T00:53:22.220Z,20.73
2023-08-20T00:55:50.492Z,18.97
2023-08-20T00:58:23.000Z,22.30
2023-08-20T01:01:01.296Z,19.07
2023-08-20T01:03:31.774Z,19.00
2023-08-20T01:06:17.406Z,18.03
2023-08-20T01:08:59.832Z,17.77
2023-08-20T01:11:35.945Z,17.23
2023-08-20T01:14:18.002Z,22.50
2023-08-20T01:16:53.658Z,18.07
2023-08-20T01:19:29.544Z,19.23
2023-08-20T01:22:28.595Z,23.20
2023-08-20T01:25:07.534Z,16.50
2023-08-20T01:27:58.486Z,19.23
2023-08-20T01:30:36.107Z,21.70
2023-08-20T01:33:07.436Z,17.80
2023-08-20T01:35:43.179Z,14.77
2023-08-20T01:38:27.368Z,18.03
2023-08-20T01:41:00.776Z,14.20
2023-08-20T01:43:36.612Z,14.10
2023-08-20T01:46:11.985Z,13.47
2023-08-20T01:48:43.815Z,12.10
2023-08-20T01:51:27.026Z,14.70
2023-08-20T01:54:08.707Z,14.70
2023-08-20T01:56:41.753Z,11.77
2023-08-20T01:59:14.088Z,12.03
2023-08-20T02:01:46.624Z,11.53
2023-08-20T02:04:17.372Z,12.70
2023-08-20T02:06:47.215Z,11.53
2023-08-20T02:09:22.892Z,13.07
2023-08-20T02:11:52.192Z,12.30
2023-08-20T02:14:34.865Z,13.37
2023-08-20T02:17:06.592Z,17.50
2023-08-20T02:19:38.890Z,15.50
2023-08-20T02:22:07.022Z,13.80
2023-08-20T02:24:38.975Z,14.37
2023-08-20T02:27:06.948Z,13.13
2023-08-20T02:29:35.073Z,11.47
2023-08-20T02:32:11.381Z,13.47
2023-08-20T02:35:05.256Z,13.77
2023-08-20T02:37:35.738Z,12.60
2023-08-20T02:40:19.978Z,14.17
2023-08-20T02:43:05.898Z,12.50
2023-08-20T02:45:37.927Z,11.20
2023-08-20T02:48:13.966Z,13.60
2023-08-20T02:50:44.241Z,19.70
2023-08-20T02:53:14.536Z,12.43
2023-08-20T02:55:44.350Z,12.90
2023-08-20T02:58:14.754Z,15.90
2023-08-20T03:00:46.169Z,13.07
2023-08-20T03:03:20.706Z,16.40
2023-08-20T03:05:53.660Z,14.73
2023-08-20T03:08:23.900Z,14.20
2023-08-20T03:10:54.005Z,13.10
2023-08-20T03:13:31.470Z,16.83
2023-08-20T03:16:25.899Z,14.90
2023-08-20T03:18:58.476Z,14.50
2023-08-20T03:21:26.772Z,13.40
2023-08-20T03:23:59.191Z,12.13
2023-08-20T03:26:29.565Z,16.67
2023-08-20T03:29:02.357Z,12.77
2023-08-20T03:31:31.378Z,12.90
2023-08-20T03:34:02.444Z,13.37
2023-08-20T03:36:33.430Z,13.50
2023-08-20T03:39:04.642Z,12.83
2023-08-20T03:41:42.981Z,13.13
2023-08-20T03:44:11.805Z,11.63
2023-08-20T03:46:46.844Z,16.70
2023-08-20T03:49:30.136Z,13.17
2023-08-20T03:52:09.947Z,12.70
2023-08-20T03:54:47.193Z,11.93
2023-08-20T03:57:15.167Z,14.30
2023-08-20T03:59:48.605Z,11.00
2023-08-20T04:02:22.747Z,16.70
2023-08-20T04:05:10.040Z,14.00
2023-08-20T04:07:43.863Z,14.03
2023-08-20T04:10:14.291Z,11.73
2023-08-20T04:12:43.577Z,12.07
2023-08-20T04:15:14.014Z,12.00
2023-08-20T04:18:01.156Z,12.67
2023-08-20T04:20:42.041Z,15.73
2023-08-20T04:23:13.974Z,13.90
2023-08-20T04:25:45.644Z,10.67
2023-08-20T04:28:26.173Z,12.90
2023-08-20T04:30:57.567Z,10.20
2023-08-20T04:33:33.102Z,12.87
2023-08-20T04:36:02.371Z,13.30
2023-08-20T04:38:35.111Z,11.80
2023-08-20T04:41:08.274Z,14.47
2023-08-20T04:43:40.393Z,14.73
2023-08-20T04:46:13.053Z,11.10
2023-08-20T04:48:41.584Z,13.00
2023-08-20T04:51:18.879Z,10.30
2023-08-20T04:53:48.499Z,11.27
2023-08-20T04:56:20.150Z,12.20
2023-08-20T04:59:05.861Z,11.67
2023-08-20T05:01:55.965Z,13.63
2023-08-20T05:04:51.359Z,10.87
2023-08-20T05:07:26.360Z,10.20
2023-08-20T05:10:01.398Z,12.10
2023-08-20T05:12:44.063Z,10.83
2023-08-20T05:15:21.225Z,10.77
2023-08-20T05:17:49.499Z,12.00
2023-08-20T05:20:30.811Z,11.73
2023-08-20T05:23:01.963Z,11.77
2023-08-20T05:25:29.970Z,11.53
2023-08-20T05:28:02.299Z,11.80
2023-08-20T05:30:37.815Z,14.47
2023-08-20T05:33:06.556Z,16.47
2023-08-20T05:35:39.734Z,12.57
2023-08-20T05:38:12.112Z,14.83
2023-08-20T05:40:40.927Z,12.23
2023-08-20T05:43:29.138Z,14.50
2023-08-20T05:46:04.568Z,13.70
2023-08-20T05:48:34.701Z,12.20
2023-08-20T05:51:04.205Z,17.57
2023-08-20T05:53:33.515Z,13.00
2023-08-20T05:56:06.755Z,15.80
2023-08-20T05:58:39.483Z,12.97
2023-08-20T06:01:25.956Z,14.23
2023-08-20T06:04:26.950Z,16.47
2023-08-20T06:07:04.227Z,11.40
2023-08-20T06:10:09.673Z,13.57
2023-08-20T06:12:45.424Z,14.70
2023-08-20T06:15:25.707Z,12.70
2023-08-20T06:17:57.193Z,12.87
2023-08-20T06:20:29.815Z,11.17
2023-08-20T06:23:19.660Z,12.40
2023-08-20T06:26:02.043Z,11.87
2023-08-20T06:28:33.148Z,13.70
2023-08-20T06:31:06.836Z,12.43
2023-08-20T06:36:42.339Z,11.27
2023-08-20T06:39:16.280Z,11.13
2023-08-20T06:41:52.191Z,12.80
2023-08-20T06:44:26.054Z,9.77
2023-08-20T06:46:54.194Z,18.53
2023-08-20T06:49:30.763Z,13.73
2023-08-20T06:52:23.440Z,9.73
2023-08-20T06:54:51.475Z,10.93
2023-08-20T06:57:20.715Z,11.60
2023-08-20T06:59:54.962Z,8.70
2023-08-20T07:02:37.521Z,15.97
2023-08-20T07:05:28.436Z,10.70
2023-08-20T07:07:58.763Z,11.30
2023-08-20T07:10:28.864Z,10.33
2023-08-20T07:13:30.607Z,10.63
2023-08-20T07:16:33.296Z,11.17
2023-08-20T07:19:10.377Z,9.33
2023-08-20T07:21:39.268Z,16.27
2023-08-20T07:24:12.666Z,8.83
2023-08-20T07:27:13.669Z,9.43
2023-08-20T07:29:50.646Z,10.90
2023-08-20T07:32:22.812Z,11.30
2023-08-20T07:34:52.333Z,9.03
2023-08-20T07:37:48.889Z,12.57
2023-08-20T07:40:28.451Z,11.40
2023-08-20T07:46:42.885Z,11.17
2023-08-20T07:49:26.775Z,9.43
2023-08-20T07:51:55.690Z,9.90
2023-08-20T07:54:26.401Z,9.17
2023-08-20T07:56:54.371Z,7.90
2023-08-20T07:59:35.453Z,10.17
2023-08-20T08:02:09.971Z,9.97
2023-08-20T08:04:40.874Z,12.17
2023-08-20T08:07:23.828Z,10.40
2023-08-20T08:10:05.016Z,9.20
2023-08-20T08:12:35.126Z,11.00
2023-08-20T08:15:20.515Z,11.83
2023-08-20T08:17:49.815Z,11.13
2023-08-20T08:20:20.448Z,9.87
2023-08-20T08:26:00.395Z,9.53
2023-08-20T08:31:50.925Z,10.03
2023-08-20T08:34:41.133Z,11.83
2023-08-20T08:37:47.078Z,10.70
2023-08-20T08:40:38.817Z,8.27
2023-08-20T08:43:56.879Z,10.53
2023-08-20T08:46:34.234Z,10.20
2023-08-20T08:50:51.565Z,10.67
2023-08-20T08:53:48.640Z,11.83
2023-08-20T08:56:40.346Z,10.17
2023-08-20T08:59:14.855Z,9.83
2023-08-20T09:01:47.112Z,9.63
2023-08-20T09:04:23.298Z,10.90
2023-08-20T09:06:58.438Z,10.80
2023-08-20T09:09:34.370Z,10.00
2023-08-20T09:12:02.262Z,10.63
2023-08-20T09:14:40.944Z,10.77
2023-08-20T09:17:08.931Z,8.30
2023-08-20T09:19:42.431Z,12.60
2023-08-20T09:22:26.262Z,9.50
2023-08-20T09:24:57.928Z,13.07
2023-08-20T09:27:29.891Z,8.60
2023-08-20T09:30:03.905Z,14.97
2023-08-20T09:32:35.051Z,9.10
2023-08-20T09:35:16.744Z,13.93
2023-08-20T09:38:19.221Z,10.10
2023-08-20T09:40:54.614Z,10.97
2023-08-20T09:43:39.695Z,10.30
2023-08-20T09:46:11.565Z,12.33
2023-08-20T09:49:10.406Z,11.00
2023-08-20T09:52:07.145Z,9.43
2023-08-20T09:55:26.663Z,8.43
2023-08-20T09:58:14.144Z,8.80
2023-08-20T10:00:47.737Z,8.07
2023-08-20T10:03:22.793Z,9.13
2023-08-20T10:06:26.169Z,9.80
2023-08-20T10:09:09.338Z,9.30
2023-08-20T10:12:02.673Z,10.33
2023-08-20T10:14:39.707Z,8.00
2023-08-20T10:17:19.374Z,8.37
2023-08-20T10:19:57.878Z,8.53
2023-08-20T10:22:39.925Z,7.77
2023-08-20T10:25:33.723Z,9.93
2023-08-20T10:28:25.399Z,8.47
2023-08-20T10:31:25.222Z,7.77
2023-08-20T10:34:20.848Z,9.87
2023-08-20T10:37:01.721Z,8.67
2023-08-20T10:39:50.163Z,9.80
2023-08-20T10:42:57.458Z,9.67
2023-08-20T10:45:39.557Z,9.87
2023-08-20T10:48:37.733Z,9.90
2023-08-20T10:51:41.653Z,9.37
2023-08-20T10:54:23.238Z,11.63
2023-08-20T10:57:03.293Z,7.53
2023-08-20T10:59:49.015Z,8.60
2023-08-20T11:02:18.674Z,10.63
2023-08-20T11:04:50.263Z,8.10
2023-08-20T11:10:25.880Z,7.97
2023-08-20T11:13:26.363Z,8.60
2023-08-20T11:16:06.906Z,9.90
2023-08-20T11:21:50.218Z,9.20
2023-08-20T11:24:18.975Z,7.50
2023-08-20T11:27:02.091Z,8.70
2023-08-20T11:29:32.225Z,9.07
2023-08-20T11:32:08.005Z,10.30
2023-08-20T11:35:00.459Z,6.80
2023-08-20T11:37:30.410Z,8.90
2023-08-20T11:40:07.523Z,11.20
2023-08-20T11:42:40.244Z,8.90
2023-08-20T11:45:14.427Z,7.57
2023-08-20T11:48:00.119Z,7.57
2023-08-20T11:50:33.718Z,8.40
2023-08-20T11:53:09.107Z,10.50
2023-08-20T11:56:08.582Z,10.20
2023-08-20T11:58:51.663Z,7.13
2023-08-20T12:01:25.523Z,7.23
2023-08-20T12:10:48.183Z,8.93
2023-08-20T12:13:28.457Z,7.50
2023-08-20T12:15:58.862Z,7.70
2023-08-20T12:18:39.175Z,8.03
2023-08-20T12:21:13.479Z,10.23
2023-08-20T12:23:47.458Z,8.40
2023-08-20T12:26:39.623Z,9.00
2023-08-20T12:29:07.584Z,9.90
2023-08-20T12:31:38.154Z,9.63
2023-08-20T12:34:09.400Z,8.00
2023-08-20T12:40:48.136Z,9.10
2023-08-20T12:43:49.973Z,7.90
2023-08-20T12:46:54.378Z,7.73
2023-08-20T12:49:40.404Z,8.87
2023-08-20T12:52:35.129Z,8.40
2023-08-20T12:55:22.282Z,10.03
2023-08-20T12:58:09.404Z,7.30
2023-08-20T13:01:08.673Z,9.97
2023-08-20T13:03:59.186Z,7.40
2023-08-20T13:07:08.760Z,8.50
2023-08-20T13:13:28.265Z,9.47
2023-08-20T13:16:16.224Z,7.17
2023-08-20T13:18:47.028Z,8.13
2023-08-20T13:24:31.774Z,7.70
2023-08-20T13:27:27.747Z,10.10
2023-08-20T13:30:46.013Z,7.47
2023-08-20T13:33:48.474Z,9.23
2023-08-20T13:36:17.325Z,8.17
2023-08-20T13:42:05.648Z,7.30
2023-08-20T13:45:00.485Z,8.40
2023-08-20T13:47:46.977Z,8.70
2023-08-20T13:50:42.951Z,8.20
2023-08-20T13:57:06.508Z,8.80
2023-08-20T13:59:37.387Z,8.00
2023-08-20T14:04:55.143Z,11.20
2023-08-20T14:07:40.000Z,9.20
2023-08-20T14:10:33.670Z,8.93
2023-08-20T14:13:48.242Z,7.33
2023-08-20T14:17:00.439Z,12.43
2023-08-20T14:19:32.340Z,11.10
2023-08-20T14:22:07.304Z,7.83
2023-08-20T14:24:43.099Z,7.80
2023-08-20T14:27:49.080Z,10.50
2023-08-20T14:30:52.067Z,8.77
2023-08-20T14:40:06.264Z,9.93
2023-08-20T14:42:38.693Z,8.43
2023-08-20T14:45:51.456Z,7.80
2023-08-20T14:48:30.332Z,8.50
2023-08-20T14:52:13.685Z,7.70
2023-08-20T14:55:01.305Z,8.80
2023-08-20T14:57:50.610Z,7.63
2023-08-20T15:00:55.004Z,7.90
2023-08-20T15:03:55.884Z,6.90
2023-08-20T15:09:31.234Z,7.73
2023-08-20T15:12:25.928Z,7.00
2023-08-20T15:15:58.442Z,8.13
2023-08-20T15:19:22.994Z,8.03
2023-08-20T15:22:07.638Z,8.53
2023-08-20T15:24:57.956Z,8.00
2023-08-20T15:27:32.078Z,8.10
2023-08-20T15:30:03.464Z,7.30
2023-08-20T15:32:39.344Z,6.80
2023-08-20T15:35:31.695Z,7.43
2023-08-20T15:38:30.158Z,8.70
2023-08-20T15:41:23.002Z,7.80
2023-08-20T15:43:57.542Z,10.37
2023-08-20T15:46:25.675Z,7.37
2023-08-20T15:49:14.921Z,13.93
2023-08-20T15:52:34.366Z,8.27
2023-08-20T15:55:57.958Z,8.57
2023-08-20T15:59:04.375Z,7.80
2023-08-20T16:02:26.843Z,11.03
2023-08-20T16:05:02.265Z,10.27
2023-08-20T16:08:07.345Z,7.00
2023-08-20T16:10:42.318Z,8.70
2023-08-20T16:13:54.536Z,7.60
2023-08-20T16:16:33.776Z,8.40
2023-08-20T16:19:10.644Z,7.40
2023-08-20T16:21:38.507Z,9.37
2023-08-20T16:24:35.531Z,7.70
2023-08-20T16:27:18.862Z,8.00
2023-08-20T16:29:49.199Z,10.33
2023-08-20T16:32:22.193Z,14.53
2023-08-20T16:35:02.556Z,9.30
2023-08-20T16:40:59.612Z,9.67
2023-08-20T16:43:48.593Z,7.93
2023-08-20T16:46:41.069Z,8.70
2023-08-20T16:49:17.915Z,7.80
2023-08-20T16:52:09.432Z,8.73
2023-08-20T16:54:58.277Z,9.50
2023-08-20T17:00:44.835Z,10.80
2023-08-20T17:03:32.450Z,9.40
2023-08-20T17:06:11.926Z,7.30
2023-08-20T17:09:08.959Z,7.97
2023-08-20T17:11:40.854Z,8.97
2023-08-20T17:14:40.672Z,8.83
2023-08-20T17:17:23.470Z,7.87
2023-08-20T17:20:08.801Z,7.97
2023-08-20T17:22:37.441Z,10.63
2023-08-20T17:25:26.368Z,7.10
2023-08-20T17:28:00.930Z,10.87
2023-08-20T17:30:34.064Z,8.50
2023-08-20T17:33:23.306Z,9.80
2023-08-20T17:36:01.028Z,8.40
2023-08-20T17:38:40.241Z,6.30
2023-08-20T17:41:11.959Z,8.23
2023-08-20T17:43:39.960Z,8.50
2023-08-20T17:46:27.009Z,7.03
2023-08-20T17:49:18.534Z,6.80
2023-08-20T17:51:51.589Z,11.57
2023-08-20T17:54:24.554Z,12.60
2023-08-20T17:57:00.906Z,7.97
2023-08-20T17:59:43.509Z,7.63
2023-08-20T18:02:28.666Z,9.00
2023-08-20T18:05:02.638Z,10.00
2023-08-20T18:07:38.365Z,9.80
2023-08-20T18:10:14.926Z,9.20
2023-08-20T18:13:34.684Z,8.93
2023-08-20T18:16:16.198Z,9.70
2023-08-20T18:18:58.812Z,9.73
2023-08-20T18:22:07.977Z,9.53
2023-08-20T18:24:49.735Z,9.50
2023-08-20T18:27:24.677Z,11.57
2023-08-20T18:30:09.476Z,10.57
2023-08-20T18:32:58.528Z,10.13
2023-08-20T18:35:29.666Z,8.10
2023-08-20T18:38:00.508Z,9.77
2023-08-20T18:40:28.779Z,8.17
2023-08-20T18:42:56.708Z,8.63
2023-08-20T18:45:25.959Z,8.00
2023-08-20T18:47:55.673Z,11.33
2023-08-20T18:50:23.980Z,9.57
2023-08-20T18:52:53.649Z,8.30
2023-08-20T18:55:23.774Z,8.67
2023-08-20T18:57:53.845Z,10.87
2023-08-20T19:00:23.349Z,10.57
2023-08-20T19:02:52.858Z,10.10
2023-08-20T19:05:28.142Z,10.13
2023-08-20T19:07:58.594Z,8.13
2023-08-20T19:10:32.332Z,8.10
2023-08-20T19:13:05.834Z,8.97
2023-08-20T19:15:48.616Z,10.67
2023-08-20T19:18:29.514Z,8.50
2023-08-20T19:21:01.999Z,9.20
2023-08-20T19:23:34.089Z,11.67
2023-08-20T19:26:09.850Z,8.90
2023-08-20T19:28:37.792Z,11.13
2023-08-20T19:31:07.829Z,12.00
2023-08-20T19:33:38.909Z,9.00
2023-08-20T19:36:11.389Z,11.37
2023-08-20T19:38:40.634Z,11.50
2023-08-20T19:41:12.148Z,10.77
2023-08-20T19:43:40.968Z,12.33
2023-08-20T19:46:30.858Z,11.40
2023-08-20T19:49:02.316Z,9.33
2023-08-20T19:51:33.524Z,9.67
2023-08-20T19:54:15.012Z,8.43
2023-08-20T19:56:47.280Z,8.80
2023-08-20T19:59:24.795Z,10.40
2023-08-20T20:01:56.638Z,8.30
2023-08-20T20:04:31.258Z,9.20
2023-08-20T20:07:20.514Z,11.57
2023-08-20T20:09:57.551Z,10.80
2023-08-20T20:12:32.483Z,13.00
2023-08-20T20:15:06.366Z,11.20
2023-08-20T20:17:39.474Z,10.70
2023-08-20T20:20:12.311Z,11.63
2023-08-20T20:22:46.082Z,9.53
2023-08-20T20:25:21.715Z,10.70
2023-08-20T20:28:00.929Z,11.60
2023-08-20T20:30:31.744Z,9.40
2023-08-20T20:33:06.939Z,9.20
2023-08-20T20:35:45.143Z,10.93
2023-08-20T20:38:17.137Z,10.30
2023-08-20T20:40:49.237Z,9.30
2023-08-20T20:43:22.945Z,11.30
2023-08-20T20:45:53.558Z,17.17
2023-08-20T20:48:34.857Z,9.80
2023-08-20T20:51:14.774Z,9.90
2023-08-20T20:53:42.758Z,9.20
2023-08-20T20:56:20.639Z,13.47
2023-08-20T20:58:54.922Z,8.60
2023-08-20T21:01:46.310Z,9.00
2023-08-20T21:04:21.306Z,8.80
2023-08-20T21:06:52.174Z,11.40
2023-08-20T21:09:29.205Z,10.17
2023-08-20T21:12:04.813Z,9.73
2023-08-20T21:14:34.935Z,10.73
2023-08-20T21:17:11.275Z,9.77
2023-08-20T21:19:59.520Z,10.80
2023-08-20T21:22:34.079Z,13.53
2023-08-20T21:25:15.302Z,12.73
2023-08-20T21:27:45.072Z,12.93
2023-08-20T21:30:22.908Z,10.77
2023-08-20T21:32:59.866Z,11.30
2023-08-20T21:35:29.620Z,11.90
2023-08-20T21:38:02.956Z,10.00
2023-08-20T21:40:34.101Z,12.37
2023-08-20T21:43:05.849Z,14.57
2023-08-20T21:45:36.085Z,11.13
2023-08-20T21:48:05.418Z,11.63
2023-08-20T21:51:06.846Z,10.00
2023-08-20T21:53:59.731Z,11.00
2023-08-20T21:56:32.208Z,9.30
2023-08-20T21:59:09.292Z,8.77
2023-08-20T22:01:42.360Z,9.10
2023-08-20T22:04:10.454Z,10.17
2023-08-20T22:06:38.423Z,11.20
2023-08-20T22:09:22.324Z,10.50
2023-08-20T22:11:52.949Z,10.60
2023-08-20T22:14:22.275Z,9.33
2023-08-20T22:17:05.793Z,10.53
2023-08-20T22:19:41.880Z,9.90
2023-08-20T22:22:14.984Z,16.83
2023-08-20T22:25:12.643Z,11.90
2023-08-20T22:27:47.590Z,9.33
2023-08-20T22:30:23.953Z,9.23
2023-08-20T22:32:56.003Z,14.40
2023-08-20T22:35:26.607Z,12.43
2023-08-20T22:38:18.390Z,10.40
2023-08-20T22:41:07.750Z,8.33
2023-08-20T22:43:43.996Z,11.47
2023-08-20T22:46:43.890Z,8.67
2023-08-20T22:49:17.098Z,10.07
2023-08-20T22:51:47.831Z,9.30
2023-08-20T22:54:23.163Z,9.53
2023-08-20T22:56:54.829Z,8.30
2023-08-20T22:59:35.506Z,10.30
2023-08-20T23:02:12.052Z,10.67
2023-08-20T23:04:46.889Z,10.20
2023-08-20T23:07:24.377Z,10.33
2023-08-20T23:09:54.503Z,11.40
2023-08-20T23:12:29.972Z,9.53
2023-08-20T23:15:22.960Z,8.70
2023-08-20T23:18:01.324Z,11.30
2023-08-20T23:20:31.116Z,10.60
2023-08-20T23:23:08.058Z,9.63
2023-08-20T23:25:55.951Z,8.47
2023-08-20T23:28:41.116Z,12.53
2023-08-20T23:31:15.618Z,9.70
2023-08-20T23:33:55.070Z,8.97
2023-08-20T23:36:23.316Z,7.50
2023-08-20T23:38:54.167Z,14.30
2023-08-20T23:41:22.187Z,10.47
2023-08-20T23:44:10.365Z,8.77
2023-08-20T23:46:47.891Z,8.80
2023-08-20T23:49:22.737Z,12.07
2023-08-20T23:51:53.051Z,9.33
2023-08-20T23:54:37.653Z,10.10
2023-08-20T23:57:18.339Z,10.57
2023-08-20T23:59:51.644Z,9.43
